sensor_id;sensor_type;location;lat;lon;timestamp;temperature;humidity
79750;SHT31;69233;51.968;5.658;2023-07-24T00:01:51;21.8;69.9
79750;SHT31;69233;51.968;5.658;2023-07-24T00:04:20;21.8;69.8
79750;SHT31;69233;51.968;5.658;2023-07-24T00:06:49;21.8;70.0
79750;SHT31;69233;51.968;5.658;2023-07-24T00:09:19;21.8;70.0
79750;SHT31;69233;51.968;5.658;2023-07-24T00:11:48;21.8;70.4
79750;SHT31;69233;51.968;5.658;2023-07-24T00:14:18;21.8;70.2
79750;SHT31;69233;51.968;5.658;2023-07-24T00:16:47;21.8;70.2
79750;SHT31;69233;51.968;5.658;2023-07-24T00:19:17;21.8;70.2
79750;SHT31;69233;51.968;5.658;2023-07-24T00:21:46;21.8;70.4
79750;SHT31;69233;51.968;5.658;2023-07-24T00:24:16;21.8;70.3
79750;SHT31;69233;51.968;5.658;2023-07-24T00:26:46;21.8;70.3
79750;SHT31;69233;51.968;5.658;2023-07-24T00:29:15;21.8;70.3
79750;SHT31;69233;51.968;5.658;2023-07-24T00:31:46;21.8;70.1
79750;SHT31;69233;51.968;5.658;2023-07-24T00:34:16;21.8;70.3
79750;SHT31;69233;51.968;5.658;2023-07-24T00:36:46;21.8;70.3
79750;SHT31;69233;51.968;5.658;2023-07-24T00:39:15;21.8;70.6
79750;SHT31;69233;51.968;5.658;2023-07-24T00:41:45;21.8;70.5
79750;SHT31;69233;51.968;5.658;2023-07-24T00:44:15;21.8;70.3
79750;SHT31;69233;51.968;5.658;2023-07-24T00:46:44;21.8;70.4
79750;SHT31;69233;51.968;5.658;2023-07-24T00:49:13;21.8;70.1
79750;SHT31;69233;51.968;5.658;2023-07-24T00:51:43;21.8;70.0
79750;SHT31;69233;51.968;5.658;2023-07-24T00:54:18;21.8;70.1
79750;SHT31;69233;51.968;5.658;2023-07-24T00:56:50;21.8;70.5
79750;SHT31;69233;51.968;5.658;2023-07-24T00:59:21;21.8;70.8
79750;SHT31;69233;51.968;5.658;2023-07-24T01:01:53;21.8;71.1
79750;SHT31;69233;51.968;5.658;2023-07-24T01:04:25;21.8;70.9
79750;SHT31;69233;51.968;5.658;2023-07-24T01:06:55;21.7;70.8
79750;SHT31;69233;51.968;5.658;2023-07-24T01:09:24;21.7;71.3
79750;SHT31;69233;51.968;5.658;2023-07-24T01:11:58;21.7;71.2
79750;SHT31;69233;51.968;5.658;2023-07-24T01:14:34;21.7;71.3
79750;SHT31;69233;51.968;5.658;2023-07-24T01:17:07;21.7;71.4
79750;SHT31;69233;51.968;5.658;2023-07-24T01:19:41;21.6;71.4
79750;SHT31;69233;51.968;5.658;2023-07-24T01:22:18;21.6;71.5
79750;SHT31;69233;51.968;5.658;2023-07-24T01:25:04;21.6;71.6
79750;SHT31;69233;51.968;5.658;2023-07-24T01:27:34;21.6;71.7
79750;SHT31;69233;51.968;5.658;2023-07-24T01:30:04;21.5;71.8
79750;SHT31;69233;51.968;5.658;2023-07-24T01:32:34;21.5;71.9
79750;SHT31;69233;51.968;5.658;2023-07-24T01:35:04;21.5;71.7
79750;SHT31;69233;51.968;5.658;2023-07-24T01:37:34;21.5;71.8
79750;SHT31;69233;51.968;5.658;2023-07-24T01:40:08;21.5;71.8
79750;SHT31;69233;51.968;5.658;2023-07-24T01:42:38;21.5;71.8
79750;SHT31;69233;51.968;5.658;2023-07-24T01:45:11;21.5;71.7
79750;SHT31;69233;51.968;5.658;2023-07-24T01:47:40;21.5;71.8
79750;SHT31;69233;51.968;5.658;2023-07-24T01:50:10;21.5;71.9
79750;SHT31;69233;51.968;5.658;2023-07-24T01:52:40;21.5;71.9
79750;SHT31;69233;51.968;5.658;2023-07-24T01:55:09;21.5;71.8
79750;SHT31;69233;51.968;5.658;2023-07-24T01:57:39;21.4;72.0
79750;SHT31;69233;51.968;5.658;2023-07-24T02:00:09;21.4;72.0
79750;SHT31;69233;51.968;5.658;2023-07-24T02:02:40;21.4;72.0
79750;SHT31;69233;51.968;5.658;2023-07-24T02:05:09;21.4;72.1
79750;SHT31;69233;51.968;5.658;2023-07-24T02:07:39;21.4;72.2
79750;SHT31;69233;51.968;5.658;2023-07-24T02:10:09;21.4;72.1
79750;SHT31;69233;51.968;5.658;2023-07-24T02:12:39;21.4;72.0
79750;SHT31;69233;51.968;5.658;2023-07-24T02:15:09;21.4;72.0
79750;SHT31;69233;51.968;5.658;2023-07-24T02:17:38;21.4;72.2
79750;SHT31;69233;51.968;5.658;2023-07-24T02:20:10;21.4;72.2
79750;SHT31;69233;51.968;5.658;2023-07-24T02:22:39;21.4;72.2
79750;SHT31;69233;51.968;5.658;2023-07-24T02:25:09;21.4;72.4
79750;SHT31;69233;51.968;5.658;2023-07-24T02:27:38;21.4;72.2
79750;SHT31;69233;51.968;5.658;2023-07-24T02:30:08;21.4;72.2
79750;SHT31;69233;51.968;5.658;2023-07-24T02:32:39;21.4;71.9
79750;SHT31;69233;51.968;5.658;2023-07-24T02:35:10;21.4;71.8
79750;SHT31;69233;51.968;5.658;2023-07-24T02:37:40;21.5;71.7
79750;SHT31;69233;51.968;5.658;2023-07-24T02:40:10;21.5;71.6
79750;SHT31;69233;51.968;5.658;2023-07-24T02:42:39;21.5;71.8
79750;SHT31;69233;51.968;5.658;2023-07-24T02:45:09;21.5;71.7
79750;SHT31;69233;51.968;5.658;2023-07-24T02:47:40;21.5;71.4
79750;SHT31;69233;51.968;5.658;2023-07-24T02:50:10;21.5;71.2
79750;SHT31;69233;51.968;5.658;2023-07-24T02:52:41;21.5;71.4
79750;SHT31;69233;51.968;5.658;2023-07-24T02:55:12;21.5;71.3
79750;SHT31;69233;51.968;5.658;2023-07-24T02:57:42;21.5;70.8
79750;SHT31;69233;51.968;5.658;2023-07-24T03:00:15;21.5;70.9
79750;SHT31;69233;51.968;5.658;2023-07-24T03:02:45;21.6;70.7
79750;SHT31;69233;51.968;5.658;2023-07-24T03:05:14;21.6;71.0
79750;SHT31;69233;51.968;5.658;2023-07-24T03:07:43;21.6;70.3
79750;SHT31;69233;51.968;5.658;2023-07-24T03:10:15;21.6;70.7
79750;SHT31;69233;51.968;5.658;2023-07-24T03:12:44;21.5;70.9
79750;SHT31;69233;51.968;5.658;2023-07-24T03:15:14;21.5;70.6
79750;SHT31;69233;51.968;5.658;2023-07-24T03:17:43;21.5;70.9
79750;SHT31;69233;51.968;5.658;2023-07-24T03:20:15;21.5;71.0
79750;SHT31;69233;51.968;5.658;2023-07-24T03:22:45;21.5;71.5
79750;SHT31;69233;51.968;5.658;2023-07-24T03:25:14;21.5;71.4
79750;SHT31;69233;51.968;5.658;2023-07-24T03:27:44;21.4;71.5
79750;SHT31;69233;51.968;5.658;2023-07-24T03:30:13;21.4;71.2
79750;SHT31;69233;51.968;5.658;2023-07-24T03:32:43;21.4;71.6
79750;SHT31;69233;51.968;5.658;2023-07-24T03:35:12;21.4;71.8
79750;SHT31;69233;51.968;5.658;2023-07-24T03:37:42;21.4;71.9
79750;SHT31;69233;51.968;5.658;2023-07-24T03:40:12;21.4;71.9
79750;SHT31;69233;51.968;5.658;2023-07-24T03:42:43;21.4;71.8
79750;SHT31;69233;51.968;5.658;2023-07-24T03:45:12;21.4;71.7
79750;SHT31;69233;51.968;5.658;2023-07-24T03:47:41;21.4;71.8
79750;SHT31;69233;51.968;5.658;2023-07-24T03:50:11;21.4;71.9
79750;SHT31;69233;51.968;5.658;2023-07-24T03:52:41;21.4;72.0
79750;SHT31;69233;51.968;5.658;2023-07-24T03:55:11;21.4;71.9
79750;SHT31;69233;51.968;5.658;2023-07-24T03:57:40;21.4;71.9
79750;SHT31;69233;51.968;5.658;2023-07-24T04:00:11;21.4;72.0
79750;SHT31;69233;51.968;5.658;2023-07-24T04:02:40;21.4;71.8
79750;SHT31;69233;51.968;5.658;2023-07-24T04:05:10;21.4;71.9
79750;SHT31;69233;51.968;5.658;2023-07-24T04:07:40;21.4;72.1
79750;SHT31;69233;51.968;5.658;2023-07-24T04:10:09;21.4;71.7
79750;SHT31;69233;51.968;5.658;2023-07-24T04:12:39;21.4;71.8
79750;SHT31;69233;51.968;5.658;2023-07-24T04:15:09;21.4;71.1
79750;SHT31;69233;51.968;5.658;2023-07-24T04:17:38;21.4;71.4
79750;SHT31;69233;51.968;5.658;2023-07-24T04:20:09;21.4;71.6
79750;SHT31;69233;51.968;5.658;2023-07-24T04:22:39;21.4;71.4
79750;SHT31;69233;51.968;5.658;2023-07-24T04:25:09;21.4;71.7
79750;SHT31;69233;51.968;5.658;2023-07-24T04:27:39;21.3;71.8
79750;SHT31;69233;51.968;5.658;2023-07-24T04:30:09;21.3;71.8
79750;SHT31;69233;51.968;5.658;2023-07-24T04:32:38;21.3;71.9
79750;SHT31;69233;51.968;5.658;2023-07-24T04:35:10;21.3;71.9
79750;SHT31;69233;51.968;5.658;2023-07-24T04:37:40;21.3;71.9
79750;SHT31;69233;51.968;5.658;2023-07-24T04:40:10;21.3;72.0
79750;SHT31;69233;51.968;5.658;2023-07-24T04:42:40;21.3;71.9
79750;SHT31;69233;51.968;5.658;2023-07-24T04:45:10;21.3;72.0
79750;SHT31;69233;51.968;5.658;2023-07-24T04:47:39;21.2;71.9
79750;SHT31;69233;51.968;5.658;2023-07-24T04:50:10;21.2;72.1
79750;SHT31;69233;51.968;5.658;2023-07-24T04:52:39;21.2;71.8
79750;SHT31;69233;51.968;5.658;2023-07-24T04:55:09;21.2;72.0
79750;SHT31;69233;51.968;5.658;2023-07-24T04:57:38;21.2;71.9
79750;SHT31;69233;51.968;5.658;2023-07-24T05:00:09;21.2;72.3
79750;SHT31;69233;51.968;5.658;2023-07-24T05:02:38;21.1;71.8
79750;SHT31;69233;51.968;5.658;2023-07-24T05:05:09;21.1;71.9
79750;SHT31;69233;51.968;5.658;2023-07-24T05:07:38;21.1;71.6
79750;SHT31;69233;51.968;5.658;2023-07-24T05:10:08;21.1;71.8
79750;SHT31;69233;51.968;5.658;2023-07-24T05:12:42;21.1;71.7
79750;SHT31;69233;51.968;5.658;2023-07-24T05:15:13;21.0;71.9
79750;SHT31;69233;51.968;5.658;2023-07-24T05:17:44;21.0;71.1
79750;SHT31;69233;51.968;5.658;2023-07-24T05:20:14;21.0;70.8
79750;SHT31;69233;51.968;5.658;2023-07-24T05:22:43;21.0;71.2
79750;SHT31;69233;51.968;5.658;2023-07-24T05:25:13;21.0;71.8
79750;SHT31;69233;51.968;5.658;2023-07-24T05:27:42;21.0;72.1
79750;SHT31;69233;51.968;5.658;2023-07-24T05:30:12;20.9;72.8
79750;SHT31;69233;51.968;5.658;2023-07-24T05:32:43;20.9;72.8
79750;SHT31;69233;51.968;5.658;2023-07-24T05:35:12;20.9;72.6
79750;SHT31;69233;51.968;5.658;2023-07-24T05:37:42;21.0;72.5
79750;SHT31;69233;51.968;5.658;2023-07-24T05:40:14;21.0;71.9
79750;SHT31;69233;51.968;5.658;2023-07-24T05:42:43;21.0;72.1
79750;SHT31;69233;51.968;5.658;2023-07-24T05:45:13;21.0;72.2
79750;SHT31;69233;51.968;5.658;2023-07-24T05:47:43;21.0;72.5
79750;SHT31;69233;51.968;5.658;2023-07-24T05:50:13;21.0;72.4
79750;SHT31;69233;51.968;5.658;2023-07-24T05:52:44;21.0;72.5
79750;SHT31;69233;51.968;5.658;2023-07-24T05:55:14;21.0;72.6
79750;SHT31;69233;51.968;5.658;2023-07-24T05:57:44;21.0;70.8
79750;SHT31;69233;51.968;5.658;2023-07-24T06:00:14;21.0;71.4
79750;SHT31;69233;51.968;5.658;2023-07-24T06:02:44;21.0;71.0
79750;SHT31;69233;51.968;5.658;2023-07-24T06:05:13;21.0;72.1
79750;SHT31;69233;51.968;5.658;2023-07-24T06:07:43;21.0;71.6
79750;SHT31;69233;51.968;5.658;2023-07-24T06:10:14;21.0;71.7
79750;SHT31;69233;51.968;5.658;2023-07-24T06:12:43;21.0;71.6
79750;SHT31;69233;51.968;5.658;2023-07-24T06:15:13;21.0;71.9
79750;SHT31;69233;51.968;5.658;2023-07-24T06:17:43;21.0;71.6
79750;SHT31;69233;51.968;5.658;2023-07-24T06:20:13;21.0;71.4
79750;SHT31;69233;51.968;5.658;2023-07-24T06:22:42;21.1;71.4
79750;SHT31;69233;51.968;5.658;2023-07-24T06:25:12;21.1;71.7
79750;SHT31;69233;51.968;5.658;2023-07-24T06:27:41;21.1;71.6
79750;SHT31;69233;51.968;5.658;2023-07-24T06:30:11;21.1;71.8
79750;SHT31;69233;51.968;5.658;2023-07-24T06:32:41;21.1;72.5
79750;SHT31;69233;51.968;5.658;2023-07-24T06:35:10;21.2;71.9
79750;SHT31;69233;51.968;5.658;2023-07-24T06:37:42;21.2;71.9
79750;SHT31;69233;51.968;5.658;2023-07-24T06:40:13;21.3;72.2
79750;SHT31;69233;51.968;5.658;2023-07-24T06:42:42;21.3;70.8
79750;SHT31;69233;51.968;5.658;2023-07-24T06:45:13;21.3;70.7
79750;SHT31;69233;51.968;5.658;2023-07-24T06:47:42;21.3;70.7
79750;SHT31;69233;51.968;5.658;2023-07-24T06:50:12;21.4;70.3
79750;SHT31;69233;51.968;5.658;2023-07-24T06:52:42;21.4;70.4
79750;SHT31;69233;51.968;5.658;2023-07-24T06:55:11;21.4;71.0
79750;SHT31;69233;51.968;5.658;2023-07-24T06:57:41;21.4;70.8
79750;SHT31;69233;51.968;5.658;2023-07-24T07:00:14;21.4;71.4
79750;SHT31;69233;51.968;5.658;2023-07-24T07:02:44;21.4;71.6
79750;SHT31;69233;51.968;5.658;2023-07-24T07:05:14;21.5;69.9
79750;SHT31;69233;51.968;5.658;2023-07-24T07:07:44;21.5;71.2
79750;SHT31;69233;51.968;5.658;2023-07-24T07:10:14;21.5;69.9
79750;SHT31;69233;51.968;5.658;2023-07-24T07:12:43;21.5;69.2
79750;SHT31;69233;51.968;5.658;2023-07-24T07:15:12;21.6;70.6
79750;SHT31;69233;51.968;5.658;2023-07-24T07:17:42;21.6;68.9
79750;SHT31;69233;51.968;5.658;2023-07-24T07:20:12;21.7;69.1
79750;SHT31;69233;51.968;5.658;2023-07-24T07:22:41;21.7;68.6
79750;SHT31;69233;51.968;5.658;2023-07-24T07:25:12;21.8;68.4
79750;SHT31;69233;51.968;5.658;2023-07-24T07:27:42;21.8;67.8
79750;SHT31;69233;51.968;5.658;2023-07-24T07:30:12;21.9;68.2
79750;SHT31;69233;51.968;5.658;2023-07-24T07:32:41;21.9;69.0
79750;SHT31;69233;51.968;5.658;2023-07-24T07:35:11;22.0;69.6
79750;SHT31;69233;51.968;5.658;2023-07-24T07:44:34;22.4;66.8
79750;SHT31;69233;51.968;5.658;2023-07-24T07:53:54;22.6;65.6
79750;SHT31;69233;51.968;5.658;2023-07-24T08:08:21;22.4;68.2
79750;SHT31;69233;51.968;5.658;2023-07-24T08:56:59;23.6;60.0
79750;SHT31;69233;51.968;5.658;2023-07-24T09:11:53;23.9;58.8
79750;SHT31;69233;51.968;5.658;2023-07-24T09:16:26;23.9;59.5
79750;SHT31;69233;51.968;5.658;2023-07-24T09:18:58;24.0;60.7
79750;SHT31;69233;51.968;5.658;2023-07-24T09:21:32;24.0;61.7
79750;SHT31;69233;51.968;5.658;2023-07-24T09:24:10;24.1;59.7
79750;SHT31;69233;51.968;5.658;2023-07-24T09:29:02;24.2;60.0
79750;SHT31;69233;51.968;5.658;2023-07-24T09:40:03;25.0;57.5
79750;SHT31;69233;51.968;5.658;2023-07-24T09:42:35;25.1;56.3
79750;SHT31;69233;51.968;5.658;2023-07-24T09:45:06;25.1;53.4
79750;SHT31;69233;51.968;5.658;2023-07-24T09:47:51;25.1;53.1
79750;SHT31;69233;51.968;5.658;2023-07-24T09:52:29;25.0;53.2
79750;SHT31;69233;51.968;5.658;2023-07-24T09:55:07;24.9;54.9
79750;SHT31;69233;51.968;5.658;2023-07-24T09:57:39;24.8;55.2
79750;SHT31;69233;51.968;5.658;2023-07-24T10:02:12;24.7;54.4
79750;SHT31;69233;51.968;5.658;2023-07-24T10:13:09;25.1;54.4
79750;SHT31;69233;51.968;5.658;2023-07-24T10:15:42;25.1;55.7
79750;SHT31;69233;51.968;5.658;2023-07-24T10:18:12;25.2;54.0
79750;SHT31;69233;51.968;5.658;2023-07-24T10:20:42;25.2;53.1
79750;SHT31;69233;51.968;5.658;2023-07-24T10:23:19;25.2;55.4
79750;SHT31;69233;51.968;5.658;2023-07-24T10:25:50;25.1;53.9
79750;SHT31;69233;51.968;5.658;2023-07-24T10:28:31;25.1;54.1
79750;SHT31;69233;51.968;5.658;2023-07-24T10:31:01;25.1;54.5
79750;SHT31;69233;51.968;5.658;2023-07-24T10:33:33;25.0;54.3
79750;SHT31;69233;51.968;5.658;2023-07-24T10:36:08;25.0;54.5
79750;SHT31;69233;51.968;5.658;2023-07-24T10:38:41;25.0;55.9
79750;SHT31;69233;51.968;5.658;2023-07-24T10:49:42;25.0;54.0
79750;SHT31;69233;51.968;5.658;2023-07-24T10:52:12;25.0;54.3
79750;SHT31;69233;51.968;5.658;2023-07-24T10:54:41;24.9;53.7
79750;SHT31;69233;51.968;5.658;2023-07-24T10:57:11;24.9;54.7
79750;SHT31;69233;51.968;5.658;2023-07-24T10:59:41;24.9;54.7
79750;SHT31;69233;51.968;5.658;2023-07-24T11:07:47;24.8;57.3
79750;SHT31;69233;51.968;5.658;2023-07-24T11:12:16;24.8;58.2
79750;SHT31;69233;51.968;5.658;2023-07-24T11:21:17;25.4;54.5
79750;SHT31;69233;51.968;5.658;2023-07-24T11:23:48;25.5;53.7
79750;SHT31;69233;51.968;5.658;2023-07-24T11:26:23;25.5;53.3
79750;SHT31;69233;51.968;5.658;2023-07-24T11:28:56;25.5;55.5
79750;SHT31;69233;51.968;5.658;2023-07-24T11:31:25;25.5;53.8
79750;SHT31;69233;51.968;5.658;2023-07-24T11:33:56;25.6;53.0
79750;SHT31;69233;51.968;5.658;2023-07-24T11:36:26;25.6;52.4
79750;SHT31;69233;51.968;5.658;2023-07-24T11:38:55;25.7;54.7
79750;SHT31;69233;51.968;5.658;2023-07-24T11:41:28;25.8;52.0
79750;SHT31;69233;51.968;5.658;2023-07-24T11:43:59;25.9;50.8
79750;SHT31;69233;51.968;5.658;2023-07-24T11:46:33;26.0;52.2
79750;SHT31;69233;51.968;5.658;2023-07-24T11:49:05;26.0;51.1
79750;SHT31;69233;51.968;5.658;2023-07-24T11:51:37;26.0;50.1
79750;SHT31;69233;51.968;5.658;2023-07-24T11:54:13;26.0;51.2
79750;SHT31;69233;51.968;5.658;2023-07-24T11:56:44;26.0;51.7
79750;SHT31;69233;51.968;5.658;2023-07-24T12:10:38;26.4;50.0
79750;SHT31;69233;51.968;5.658;2023-07-24T12:13:16;26.5;51.2
79750;SHT31;69233;51.968;5.658;2023-07-24T12:15:45;26.4;51.8
79750;SHT31;69233;51.968;5.658;2023-07-24T12:18:15;26.3;53.6
79750;SHT31;69233;51.968;5.658;2023-07-24T12:20:45;26.2;55.5
79750;SHT31;69233;51.968;5.658;2023-07-24T12:23:14;26.1;55.5
79750;SHT31;69233;51.968;5.658;2023-07-24T12:25:44;26.0;55.6
79750;SHT31;69233;51.968;5.658;2023-07-24T12:28:13;25.9;58.6
79750;SHT31;69233;51.968;5.658;2023-07-24T12:30:47;26.0;58.7
79750;SHT31;69233;51.968;5.658;2023-07-24T12:33:16;26.0;56.3
79750;SHT31;69233;51.968;5.658;2023-07-24T12:35:50;26.0;56.7
79750;SHT31;69233;51.968;5.658;2023-07-24T12:38:20;26.1;58.8
79750;SHT31;69233;51.968;5.658;2023-07-24T12:40:50;26.2;57.6
79750;SHT31;69233;51.968;5.658;2023-07-24T12:43:19;26.4;60.5
79750;SHT31;69233;51.968;5.658;2023-07-24T12:46:04;26.7;61.7
79750;SHT31;69233;51.968;5.658;2023-07-24T12:48:33;27.3;61.2
79750;SHT31;69233;51.968;5.658;2023-07-24T12:51:03;28.0;58.7
79750;SHT31;69233;51.968;5.658;2023-07-24T12:53:32;28.7;55.0
79750;SHT31;69233;51.968;5.658;2023-07-24T12:56:02;29.4;53.4
79750;SHT31;69233;51.968;5.658;2023-07-24T12:58:31;29.8;52.0
79750;SHT31;69233;51.968;5.658;2023-07-24T13:01:01;30.0;46.3
79750;SHT31;69233;51.968;5.658;2023-07-24T13:03:30;30.1;47.7
79750;SHT31;69233;51.968;5.658;2023-07-24T13:06:00;30.1;50.0
79750;SHT31;69233;51.968;5.658;2023-07-24T13:08:29;30.2;46.9
79750;SHT31;69233;51.968;5.658;2023-07-24T13:10:59;30.3;48.0
79750;SHT31;69233;51.968;5.658;2023-07-24T13:13:28;30.5;48.5
79750;SHT31;69233;51.968;5.658;2023-07-24T13:15:58;30.8;43.2
79750;SHT31;69233;51.968;5.658;2023-07-24T13:18:27;31.0;43.5
79750;SHT31;69233;51.968;5.658;2023-07-24T13:21:03;31.0;42.8
79750;SHT31;69233;51.968;5.658;2023-07-24T13:23:35;31.1;45.1
79750;SHT31;69233;51.968;5.658;2023-07-24T13:26:04;31.3;43.3
79750;SHT31;69233;51.968;5.658;2023-07-24T13:28:40;31.4;42.7
79750;SHT31;69233;51.968;5.658;2023-07-24T13:31:14;31.5;45.2
79750;SHT31;69233;51.968;5.658;2023-07-24T13:33:44;31.7;43.2
79750;SHT31;69233;51.968;5.658;2023-07-24T13:36:14;31.9;40.5
79750;SHT31;69233;51.968;5.658;2023-07-24T13:38:44;32.1;41.5
79750;SHT31;69233;51.968;5.658;2023-07-24T13:41:13;32.3;41.3
79750;SHT31;69233;51.968;5.658;2023-07-24T13:43:49;32.5;42.0
79750;SHT31;69233;51.968;5.658;2023-07-24T13:46:20;32.8;40.8
79750;SHT31;69233;51.968;5.658;2023-07-24T13:48:49;33.0;41.4
79750;SHT31;69233;51.968;5.658;2023-07-24T13:51:19;33.3;38.1
79750;SHT31;69233;51.968;5.658;2023-07-24T13:53:48;33.5;38.5
79750;SHT31;69233;51.968;5.658;2023-07-24T13:56:19;33.7;37.0
79750;SHT31;69233;51.968;5.658;2023-07-24T13:58:50;33.7;36.5
79750;SHT31;69233;51.968;5.658;2023-07-24T14:01:22;33.5;37.1
79750;SHT31;69233;51.968;5.658;2023-07-24T14:03:51;33.1;36.8
79750;SHT31;69233;51.968;5.658;2023-07-24T14:06:21;32.4;37.6
79750;SHT31;69233;51.968;5.658;2023-07-24T14:08:50;31.7;39.0
79750;SHT31;69233;51.968;5.658;2023-07-24T14:11:36;31.0;39.9
79750;SHT31;69233;51.968;5.658;2023-07-24T14:14:05;30.6;41.3
79750;SHT31;69233;51.968;5.658;2023-07-24T14:16:35;30.2;42.1
79750;SHT31;69233;51.968;5.658;2023-07-24T14:27:30;29.6;44.2
79750;SHT31;69233;51.968;5.658;2023-07-24T14:38:27;29.0;44.2
79750;SHT31;69233;51.968;5.658;2023-07-24T14:41:08;28.8;47.5
79750;SHT31;69233;51.968;5.658;2023-07-24T14:43:40;28.5;50.9
79750;SHT31;69233;51.968;5.658;2023-07-24T14:46:09;28.2;52.5
79750;SHT31;69233;51.968;5.658;2023-07-24T14:48:39;28.0;53.7
79750;SHT31;69233;51.968;5.658;2023-07-24T14:51:08;27.9;52.9
79750;SHT31;69233;51.968;5.658;2023-07-24T14:53:39;27.7;53.8
79750;SHT31;69233;51.968;5.658;2023-07-24T14:56:09;27.5;53.9
79750;SHT31;69233;51.968;5.658;2023-07-24T14:58:39;27.4;54.4
79750;SHT31;69233;51.968;5.658;2023-07-24T15:01:13;27.1;54.7
79750;SHT31;69233;51.968;5.658;2023-07-24T15:03:42;26.9;55.4
79750;SHT31;69233;51.968;5.658;2023-07-24T15:06:12;26.8;58.7
79750;SHT31;69233;51.968;5.658;2023-07-24T15:09:09;26.7;57.7
79750;SHT31;69233;51.968;5.658;2023-07-24T15:11:38;26.7;57.2
79750;SHT31;69233;51.968;5.658;2023-07-24T15:14:08;26.6;57.9
79750;SHT31;69233;51.968;5.658;2023-07-24T15:16:42;26.6;57.7
79750;SHT31;69233;51.968;5.658;2023-07-24T15:19:12;26.5;58.2
79750;SHT31;69233;51.968;5.658;2023-07-24T15:21:42;26.5;58.3
79750;SHT31;69233;51.968;5.658;2023-07-24T15:24:12;26.4;58.5
79750;SHT31;69233;51.968;5.658;2023-07-24T15:26:53;26.4;59.2
79750;SHT31;69233;51.968;5.658;2023-07-24T15:29:23;26.4;58.7
79750;SHT31;69233;51.968;5.658;2023-07-24T15:31:52;26.4;58.6
79750;SHT31;69233;51.968;5.658;2023-07-24T15:34:22;26.3;58.0
79750;SHT31;69233;51.968;5.658;2023-07-24T15:36:52;26.3;60.2
79750;SHT31;69233;51.968;5.658;2023-07-24T15:39:21;26.4;61.3
79750;SHT31;69233;51.968;5.658;2023-07-24T15:41:51;26.8;62.5
79750;SHT31;69233;51.968;5.658;2023-07-24T15:44:20;27.3;59.2
79750;SHT31;69233;51.968;5.658;2023-07-24T15:46:50;27.7;56.5
79750;SHT31;69233;51.968;5.658;2023-07-24T15:49:19;28.1;56.2
79750;SHT31;69233;51.968;5.658;2023-07-24T15:51:49;28.4;55.0
79750;SHT31;69233;51.968;5.658;2023-07-24T15:54:18;28.7;53.3
79750;SHT31;69233;51.968;5.658;2023-07-24T15:56:48;29.0;51.9
79750;SHT31;69233;51.968;5.658;2023-07-24T15:59:17;29.3;50.5
79750;SHT31;69233;51.968;5.658;2023-07-24T16:01:47;29.4;48.2
79750;SHT31;69233;51.968;5.658;2023-07-24T16:04:18;29.4;47.3
79750;SHT31;69233;51.968;5.658;2023-07-24T16:06:48;29.3;46.8
79750;SHT31;69233;51.968;5.658;2023-07-24T16:09:18;29.1;47.7
79750;SHT31;69233;51.968;5.658;2023-07-24T16:11:49;28.9;47.6
79750;SHT31;69233;51.968;5.658;2023-07-24T16:14:22;28.7;48.4
79750;SHT31;69233;51.968;5.658;2023-07-24T16:16:52;28.4;48.7
79750;SHT31;69233;51.968;5.658;2023-07-24T16:19:41;28.1;48.6
79750;SHT31;69233;51.968;5.658;2023-07-24T16:22:11;27.8;49.0
79750;SHT31;69233;51.968;5.658;2023-07-24T16:24:40;27.5;48.9
79750;SHT31;69233;51.968;5.658;2023-07-24T16:45:44;26.6;49.8
79750;SHT31;69233;51.968;5.658;2023-07-24T16:48:18;26.4;50.4
79750;SHT31;69233;51.968;5.658;2023-07-24T16:50:49;26.3;51.0
79750;SHT31;69233;51.968;5.658;2023-07-24T16:53:19;26.1;50.6
79750;SHT31;69233;51.968;5.658;2023-07-24T16:55:48;26.0;50.2
79750;SHT31;69233;51.968;5.658;2023-07-24T16:58:20;25.8;51.0
79750;SHT31;69233;51.968;5.658;2023-07-24T17:00:57;25.6;50.7
79750;SHT31;69233;51.968;5.658;2023-07-24T17:11:52;25.1;51.0
79750;SHT31;69233;51.968;5.658;2023-07-24T17:17:25;25.0;51.1
79750;SHT31;69233;51.968;5.658;2023-07-24T17:19:54;24.8;52.0
79750;SHT31;69233;51.968;5.658;2023-07-24T17:22:24;24.6;51.3
79750;SHT31;69233;51.968;5.658;2023-07-24T17:24:53;24.5;51.7
79750;SHT31;69233;51.968;5.658;2023-07-24T17:27:33;24.4;52.3
79750;SHT31;69233;51.968;5.658;2023-07-24T17:30:06;24.2;53.2
79750;SHT31;69233;51.968;5.658;2023-07-24T17:32:35;24.1;53.1
79750;SHT31;69233;51.968;5.658;2023-07-24T17:35:11;24.0;52.1
79750;SHT31;69233;51.968;5.658;2023-07-24T17:37:44;23.9;52.1
79750;SHT31;69233;51.968;5.658;2023-07-24T17:40:14;23.8;52.6
79750;SHT31;69233;51.968;5.658;2023-07-24T17:42:48;23.7;52.6
79750;SHT31;69233;51.968;5.658;2023-07-24T17:55:45;23.6;53.8
79750;SHT31;69233;51.968;5.658;2023-07-24T17:58:19;23.5;53.9
79750;SHT31;69233;51.968;5.658;2023-07-24T18:00:48;23.5;53.5
79750;SHT31;69233;51.968;5.658;2023-07-24T18:03:22;23.5;54.3
79750;SHT31;69233;51.968;5.658;2023-07-24T18:05:51;23.4;54.0
79750;SHT31;69233;51.968;5.658;2023-07-24T18:08:23;23.3;54.4
79750;SHT31;69233;51.968;5.658;2023-07-24T18:10:52;23.2;54.3
79750;SHT31;69233;51.968;5.658;2023-07-24T18:13:22;23.2;55.0
79750;SHT31;69233;51.968;5.658;2023-07-24T18:15:54;23.1;54.7
79750;SHT31;69233;51.968;5.658;2023-07-24T18:18:31;23.0;55.2
79750;SHT31;69233;51.968;5.658;2023-07-24T18:21:07;22.9;55.7
79750;SHT31;69233;51.968;5.658;2023-07-24T18:23:36;22.9;55.2
79750;SHT31;69233;51.968;5.658;2023-07-24T18:26:06;22.8;55.6
79750;SHT31;69233;51.968;5.658;2023-07-24T18:28:37;22.7;55.4
79750;SHT31;69233;51.968;5.658;2023-07-24T18:31:07;22.6;56.0
79750;SHT31;69233;51.968;5.658;2023-07-24T18:33:36;22.6;56.5
79750;SHT31;69233;51.968;5.658;2023-07-24T18:36:06;22.5;56.2
79750;SHT31;69233;51.968;5.658;2023-07-24T18:38:36;22.5;56.1
79750;SHT31;69233;51.968;5.658;2023-07-24T18:41:05;22.4;56.6
79750;SHT31;69233;51.968;5.658;2023-07-24T18:43:35;22.4;56.8
79750;SHT31;69233;51.968;5.658;2023-07-24T18:46:04;22.3;57.0
79750;SHT31;69233;51.968;5.658;2023-07-24T18:48:34;22.3;56.4
79750;SHT31;69233;51.968;5.658;2023-07-24T18:51:03;22.3;56.6
79750;SHT31;69233;51.968;5.658;2023-07-24T18:53:35;22.2;56.3
79750;SHT31;69233;51.968;5.658;2023-07-24T18:56:07;22.2;56.5
79750;SHT31;69233;51.968;5.658;2023-07-24T18:58:39;22.1;56.6
79750;SHT31;69233;51.968;5.658;2023-07-24T19:01:10;22.1;55.9
79750;SHT31;69233;51.968;5.658;2023-07-24T19:03:41;22.1;56.1
79750;SHT31;69233;51.968;5.658;2023-07-24T19:06:12;22.0;56.2
79750;SHT31;69233;51.968;5.658;2023-07-24T19:08:48;22.0;56.0
79750;SHT31;69233;51.968;5.658;2023-07-24T19:11:18;21.9;55.9
79750;SHT31;69233;51.968;5.658;2023-07-24T19:13:47;21.9;56.2
79750;SHT31;69233;51.968;5.658;2023-07-24T19:16:17;21.9;55.7
79750;SHT31;69233;51.968;5.658;2023-07-24T19:18:46;21.8;55.6
79750;SHT31;69233;51.968;5.658;2023-07-24T19:23:16;21.8;55.4
79750;SHT31;69233;51.968;5.658;2023-07-24T19:25:52;21.8;56.4
79750;SHT31;69233;51.968;5.658;2023-07-24T19:30:27;21.8;56.5
79750;SHT31;69233;51.968;5.658;2023-07-24T19:33:12;21.8;57.2
79750;SHT31;69233;51.968;5.658;2023-07-24T19:37:44;21.7;56.7
79750;SHT31;69233;51.968;5.658;2023-07-24T19:40:15;21.6;57.2
79750;SHT31;69233;51.968;5.658;2023-07-24T19:42:46;21.6;57.2
79750;SHT31;69233;51.968;5.658;2023-07-24T19:46:13;21.5;57.1
79750;SHT31;69233;51.968;5.658;2023-07-24T19:57:20;21.4;56.2
79750;SHT31;69233;51.968;5.658;2023-07-24T20:10:16;21.2;57.7
79750;SHT31;69233;51.968;5.658;2023-07-24T20:12:45;21.1;57.8